Time;durP1;ratioP1;P1;durP2;ratioP2;P2;SDS_P1;SDS_P2;PMS_P1;PMS_P2;Temp;Humidity;BMP_temperature;BMP_pressure;BME280_temperature;BME280_humidity;BME280_pressure;Samples;Min_cycle;Max_cycle;Signal;HPM_P1;HPM_P2
2023/06/05 00:00:28;;;;;;;18.80;10.52;;;;;;;;;;5076632;28;20061;-62
2023/06/05 00:02:54;;;;;;;17.67;9.55;;;;;;;;;;5076502;28;20551;-62
2023/06/05 00:05:20;;;;;;;17.52;10.43;;;;;;;;;;5075829;28;20025;-62
2023/06/05 00:07:46;;;;;;;17.75;9.75;;;;;;;;;;5075950;28;20088;-61
2023/06/05 00:10:13;;;;;;;16.20;10.23;;;;;;;;;;5075308;28;20408;-63
2023/06/05 00:12:40;;;;;;;18.88;9.88;;;;;;;;;;5076646;28;20103;-60
2023/06/05 00:15:07;;;;;;;19.33;11.43;;;;;;;;;;5074171;28;20025;-61
2023/06/05 00:17:33;;;;;;;17.15;10.13;;;;;;;;;;5076528;28;20021;-62
2023/06/05 00:19:59;;;;;;;16.73;9.57;;;;;;;;;;5075847;28;20029;-62
2023/06/05 00:22:27;;;;;;;18.25;9.95;;;;;;;;;;5076876;28;20042;-62
2023/06/05 00:24:53;;;;;;;17.30;9.43;;;;;;;;;;5075179;28;20070;-62
2023/06/05 00:27:19;;;;;;;15.80;9.70;;;;;;;;;;5074649;28;20028;-61
2023/06/05 00:29:45;;;;;;;18.58;9.23;;;;;;;;;;5075643;28;20025;-62
2023/06/05 00:32:11;;;;;;;17.10;10.15;;;;;;;;;;5076138;28;20434;-63
2023/06/05 00:34:37;;;;;;;17.40;9.73;;;;;;;;;;5075411;28;20109;-64
2023/06/05 00:37:04;;;;;;;16.38;9.15;;;;;;;;;;5078311;28;20070;-63
2023/06/05 00:39:30;;;;;;;17.77;9.75;;;;;;;;;;5077780;28;20021;-62
2023/06/05 00:41:56;;;;;;;17.45;9.70;;;;;;;;;;5076222;28;20033;-62
2023/06/05 00:44:22;;;;;;;16.92;9.93;;;;;;;;;;5074478;28;20016;-60
2023/06/05 00:46:50;;;;;;;17.23;9.50;;;;;;;;;;5061556;22;20057;-59
2023/06/05 00:49:16;;;;;;;17.10;9.40;;;;;;;;;;5031250;28;20045;-60
2023/06/05 00:51:42;;;;;;;17.27;9.27;;;;;;;;;;5031294;28;20032;-59
2023/06/05 00:54:09;;;;;;;17.73;9.02;;;;;;;;;;5031654;28;20055;-61
2023/06/05 00:56:36;;;;;;;19.40;9.40;;;;;;;;;;5032080;28;20029;-61
2023/06/05 00:59:02;;;;;;;17.77;8.90;;;;;;;;;;5031984;28;20022;-61
2023/06/05 01:01:29;;;;;;;17.75;9.32;;;;;;;;;;5031997;28;20060;-61
2023/06/05 01:03:57;;;;;;;16.60;8.80;;;;;;;;;;5031699;28;20026;-60
2023/06/05 01:06:24;;;;;;;18.00;8.88;;;;;;;;;;5031606;28;20025;-58
2023/06/05 01:08:50;;;;;;;17.38;9.20;;;;;;;;;;5031714;28;20557;-61
2023/06/05 01:11:27;;;;;;;17.88;9.20;;;;;;;;;;5031800;28;20096;-61
2023/06/05 01:14:15;;;;;;;16.60;8.98;;;;;;;;;;5031453;28;20032;-61
2023/06/05 01:16:42;;;;;;;16.75;9.25;;;;;;;;;;5019454;28;20393;-61
2023/06/05 01:19:10;;;;;;;18.95;9.13;;;;;;;;;;5031812;28;20021;-61
2023/06/05 01:21:36;;;;;;;16.50;9.40;;;;;;;;;;5031747;28;20083;-61
2023/06/05 01:24:02;;;;;;;16.65;9.52;;;;;;;;;;5029913;28;20037;-61
2023/06/05 01:26:37;;;;;;;17.23;9.50;;;;;;;;;;5021879;28;20041;-61
2023/06/05 01:29:06;;;;;;;16.52;9.40;;;;;;;;;;5031650;28;20104;-61
2023/06/05 01:31:36;;;;;;;17.75;9.32;;;;;;;;;;5031581;28;20079;-61
2023/06/05 01:34:05;;;;;;;18.48;10.32;;;;;;;;;;5030927;28;20018;-60
2023/06/05 01:36:32;;;;;;;18.95;9.85;;;;;;;;;;5031404;28;20481;-61
2023/06/05 01:38:59;;;;;;;18.83;9.98;;;;;;;;;;5030367;28;20037;-61
2023/06/05 01:41:26;;;;;;;21.42;11.68;;;;;;;;;;5031774;28;20025;-61
2023/06/05 01:43:53;;;;;;;17.90;10.48;;;;;;;;;;5031228;28;20033;-61
2023/06/05 01:46:19;;;;;;;18.77;10.65;;;;;;;;;;5031047;28;20501;-61
2023/06/05 01:48:46;;;;;;;20.45;10.93;;;;;;;;;;5031425;28;20030;-61
2023/06/05 01:51:12;;;;;;;18.15;9.60;;;;;;;;;;5031437;28;20041;-60
2023/06/05 01:53:38;;;;;;;19.50;9.15;;;;;;;;;;5031136;28;20025;-61
2023/06/05 01:56:06;;;;;;;19.50;9.52;;;;;;;;;;5030322;28;20094;-61
2023/06/05 01:58:32;;;;;;;19.92;9.02;;;;;;;;;;5030190;28;20018;-61
2023/06/05 02:00:58;;;;;;;18.63;9.00;;;;;;;;;;5031356;28;20021;-61
2023/06/05 02:03:25;;;;;;;17.23;9.27;;;;;;;;;;5031363;28;20026;-61
2023/06/05 02:05:51;;;;;;;17.30;9.27;;;;;;;;;;5034447;28;20029;-61
2023/06/05 02:08:19;;;;;;;19.70;9.90;;;;;;;;;;5034194;28;20103;-61
2023/06/05 02:10:48;;;;;;;21.23;9.80;;;;;;;;;;5034096;28;20083;-61
2023/06/05 02:13:19;;;;;;;18.05;9.63;;;;;;;;;;5035101;28;20025;-61
2023/06/05 02:15:45;;;;;;;19.20;10.15;;;;;;;;;;5034337;28;20370;-63
2023/06/05 02:18:11;;;;;;;19.77;10.55;;;;;;;;;;5035093;28;20436;-60
2023/06/05 02:20:37;;;;;;;18.65;10.00;;;;;;;;;;5033619;28;20026;-61
2023/06/05 02:23:04;;;;;;;18.80;10.23;;;;;;;;;;5035129;28;20033;-59
2023/06/05 02:25:31;;;;;;;19.20;10.57;;;;;;;;;;5034371;28;20128;-61
2023/06/05 02:27:57;;;;;;;18.10;9.93;;;;;;;;;;5035134;28;20053;-61
2023/06/05 02:30:23;;;;;;;20.48;10.57;;;;;;;;;;5035025;28;20064;-61
2023/06/05 02:32:56;;;;;;;19.42;10.38;;;;;;;;;;5034841;28;20086;-61
2023/06/05 02:35:23;;;;;;;19.90;10.00;;;;;;;;;;5034087;28;20027;-61
2023/06/05 02:37:49;;;;;;;19.40;10.93;;;;;;;;;;5034789;28;20103;-60
2023/06/05 02:40:15;;;;;;;18.10;10.15;;;;;;;;;;5035105;28;20022;-60
2023/06/05 02:42:42;;;;;;;18.83;10.15;;;;;;;;;;5034911;28;20038;-60
2023/06/05 02:45:08;;;;;;;19.35;10.85;;;;;;;;;;5033655;28;20029;-61
2023/06/05 02:47:34;;;;;;;21.08;10.98;;;;;;;;;;5034719;28;20029;-61
2023/06/05 02:50:01;;;;;;;22.27;11.13;;;;;;;;;;5034697;28;20042;-60
2023/06/05 02:52:35;;;;;;;18.95;10.25;;;;;;;;;;5034597;28;20029;-60
2023/06/05 02:55:02;;;;;;;19.05;10.40;;;;;;;;;;5033762;28;20021;-60
2023/06/05 02:57:28;;;;;;;20.58;11.40;;;;;;;;;;5034622;28;20021;-63
2023/06/05 02:59:55;;;;;;;18.92;11.15;;;;;;;;;;5034245;28;20371;-61
2023/06/05 03:02:22;;;;;;;20.23;11.00;;;;;;;;;;5032986;28;20060;-61
2023/06/05 03:04:52;;;;;;;18.83;10.50;;;;;;;;;;5033472;28;20083;-60
2023/06/05 03:07:19;;;;;;;19.55;11.05;;;;;;;;;;5034341;28;20025;-60
2023/06/05 03:09:45;;;;;;;19.27;10.77;;;;;;;;;;5034168;28;20049;-59
2023/06/05 03:12:11;;;;;;;19.35;10.75;;;;;;;;;;5034077;28;20118;-61
2023/06/05 03:14:37;;;;;;;23.85;11.38;;;;;;;;;;5032179;28;20022;-61
2023/06/05 03:17:03;;;;;;;20.17;11.10;;;;;;;;;;5032608;28;20025;-60
2023/06/05 03:19:29;;;;;;;20.70;11.38;;;;;;;;;;5033888;28;20511;-58
2023/06/05 03:21:56;;;;;;;21.48;11.35;;;;;;;;;;5034001;28;20108;-59
2023/06/05 03:24:24;;;;;;;20.20;10.82;;;;;;;;;;5033130;28;20075;-61
2023/06/05 03:26:50;;;;;;;21.13;10.98;;;;;;;;;;5033593;28;20018;-61
2023/06/05 03:29:16;;;;;;;21.42;11.63;;;;;;;;;;5032460;28;20436;-60
2023/06/05 03:31:42;;;;;;;21.05;11.55;;;;;;;;;;5033231;28;20485;-61
2023/06/05 03:34:08;;;;;;;23.77;11.20;;;;;;;;;;5032331;28;20079;-60
2023/06/05 03:36:37;;;;;;;21.23;11.18;;;;;;;;;;5033205;28;20065;-61
2023/06/05 03:39:03;;;;;;;22.95;11.20;;;;;;;;;;5033412;28;20021;-58
2023/06/05 03:41:29;;;;;;;22.25;12.13;;;;;;;;;;5033664;28;20025;-60
2023/06/05 03:43:56;;;;;;;22.08;11.25;;;;;;;;;;5033204;28;20028;-60
2023/06/05 03:46:23;;;;;;;20.90;11.20;;;;;;;;;;5032762;28;20496;-61
2023/06/05 03:48:53;;;;;;;25.27;12.40;;;;;;;;;;5033383;28;20032;-58
2023/06/05 03:51:19;;;;;;;21.48;11.77;;;;;;;;;;5033615;28;20497;-60
2023/06/05 03:53:45;;;;;;;23.75;12.27;;;;;;;;;;5033441;28;20060;-61
2023/06/05 03:56:15;;;;;;;22.70;11.20;;;;;;;;;;5031390;28;20335;-60
2023/06/05 03:58:41;;;;;;;22.30;11.93;;;;;;;;;;5033269;28;20018;-60
2023/06/05 04:01:08;;;;;;;19.73;10.93;;;;;;;;;;5033487;28;20030;-60
2023/06/05 04:03:37;;;;;;;24.52;12.98;;;;;;;;;;5033445;28;20026;-60
2023/06/05 04:06:03;;;;;;;23.77;12.77;;;;;;;;;;5032516;28;20036;-59
2023/06/05 04:08:29;;;;;;;19.77;11.73;;;;;;;;;;5033035;28;20033;-60
2023/06/05 04:10:55;;;;;;;26.30;13.57;;;;;;;;;;5032894;28;20050;-60
2023/06/05 04:13:21;;;;;;;24.42;12.88;;;;;;;;;;5032797;28;20053;-59
2023/06/05 04:15:48;;;;;;;23.10;12.88;;;;;;;;;;5032145;28;20488;-60
2023/06/05 04:18:14;;;;;;;20.95;11.43;;;;;;;;;;5032845;28;20046;-61
2023/06/05 04:20:40;;;;;;;22.73;12.73;;;;;;;;;;5032830;28;20021;-60
2023/06/05 04:23:06;;;;;;;21.85;12.73;;;;;;;;;;5031382;28;20025;-61
2023/06/05 04:25:32;;;;;;;20.33;12.07;;;;;;;;;;5031596;28;20030;-61
2023/06/05 04:27:59;;;;;;;23.63;13.88;;;;;;;;;;5032707;28;20104;-61
2023/06/05 04:30:25;;;;;;;24.08;13.18;;;;;;;;;;5032716;28;20022;-61
2023/06/05 04:32:54;;;;;;;23.05;13.50;;;;;;;;;;5032484;28;20032;-61
2023/06/05 04:35:20;;;;;;;24.23;14.07;;;;;;;;;;5031780;28;20033;-61
2023/06/05 04:37:46;;;;;;;24.13;12.75;;;;;;;;;;5031110;28;20056;-61
2023/06/05 04:40:12;;;;;;;22.05;13.30;;;;;;;;;;5032434;28;20052;-60
2023/06/05 04:42:39;;;;;;;21.48;12.95;;;;;;;;;;5032361;28;20025;-61
2023/06/05 04:45:07;;;;;;;26.48;14.57;;;;;;;;;;5029926;28;20119;-61
2023/06/05 04:47:33;;;;;;;23.75;13.60;;;;;;;;;;5032344;28;20025;-59
2023/06/05 04:50:00;;;;;;;23.05;13.32;;;;;;;;;;5032017;28;20481;-60
2023/06/05 04:52:29;;;;;;;22.55;13.82;;;;;;;;;;5032161;28;20033;-61
2023/06/05 04:54:55;;;;;;;23.95;15.48;;;;;;;;;;5029863;28;20026;-63
2023/06/05 04:57:21;;;;;;;22.27;13.43;;;;;;;;;;5031939;28;20033;-61
2023/06/05 04:59:47;;;;;;;23.23;14.82;;;;;;;;;;5032187;28;20529;-63
2023/06/05 05:02:13;;;;;;;22.35;12.73;;;;;;;;;;5032124;28;20025;-61
2023/06/05 05:04:39;;;;;;;24.50;13.65;;;;;;;;;;5031212;28;20017;-61
2023/06/05 05:07:06;;;;;;;23.23;13.48;;;;;;;;;;5029950;28;20021;-61
2023/06/05 05:09:32;;;;;;;22.35;14.25;;;;;;;;;;5028944;28;20031;-62
2023/06/05 05:11:58;;;;;;;21.20;13.02;;;;;;;;;;5030009;28;20095;-62
2023/06/05 05:14:26;;;;;;;23.73;14.18;;;;;;;;;;5029249;28;20029;-60
2023/06/05 05:16:53;;;;;;;21.88;13.63;;;;;;;;;;5030030;28;20022;-60
2023/06/05 05:19:19;;;;;;;25.60;13.65;;;;;;;;;;5027604;28;20056;-59
2023/06/05 05:21:47;;;;;;;23.98;14.15;;;;;;;;;;5029568;28;20026;-60
2023/06/05 05:24:13;;;;;;;25.40;14.43;;;;;;;;;;5030468;28;20031;-61
2023/06/05 05:26:41;;;;;;;24.45;13.80;;;;;;;;;;5030971;28;20385;-60
2023/06/05 05:29:08;;;;;;;22.10;13.98;;;;;;;;;;5031316;28;20104;-61
2023/06/05 05:31:34;;;;;;;23.23;13.75;;;;;;;;;;5031218;28;20025;-59
2023/06/05 05:34:00;;;;;;;24.10;14.57;;;;;;;;;;5030353;28;20053;-61
2023/06/05 05:36:27;;;;;;;26.55;14.38;;;;;;;;;;5031017;28;20025;-61
2023/06/05 05:38:53;;;;;;;26.13;14.43;;;;;;;;;;5030614;28;20101;-61
2023/06/05 05:41:20;;;;;;;24.20;14.38;;;;;;;;;;5031309;28;20022;-62
2023/06/05 05:43:47;;;;;;;27.15;14.57;;;;;;;;;;5031515;28;20057;-59
2023/06/05 05:46:13;;;;;;;23.65;14.13;;;;;;;;;;5031242;28;20037;-59
2023/06/05 05:48:39;;;;;;;23.17;14.65;;;;;;;;;;5031925;28;20033;-61
2023/06/05 05:51:05;;;;;;;24.17;13.73;;;;;;;;;;5029886;28;20037;-60
2023/06/05 05:53:31;;;;;;;24.42;13.98;;;;;;;;;;5029718;28;20573;-59
2023/06/05 05:55:57;;;;;;;27.33;14.60;;;;;;;;;;5023266;28;20120;-66
2023/06/05 05:58:24;;;;;;;25.90;13.60;;;;;;;;;;5023581;28;20053;-61
2023/06/05 06:00:50;;;;;;;23.63;14.35;;;;;;;;;;5030965;28;20022;-61
2023/06/05 06:03:17;;;;;;;23.25;13.77;;;;;;;;;;5030944;28;20115;-62
2023/06/05 06:05:44;;;;;;;26.88;13.63;;;;;;;;;;5029117;28;20037;-61
2023/06/05 06:08:10;;;;;;;25.10;14.13;;;;;;;;;;5031250;28;20021;-62
2023/06/05 06:10:37;;;;;;;24.08;13.93;;;;;;;;;;5031210;28;20025;-62
2023/06/05 06:13:04;;;;;;;25.38;14.60;;;;;;;;;;5031137;28;20026;-62
2023/06/05 06:15:30;;;;;;;23.25;14.15;;;;;;;;;;5028645;28;20433;-62
2023/06/05 06:17:56;;;;;;;22.70;14.82;;;;;;;;;;5030853;28;20021;-61
2023/06/05 06:20:23;;;;;;;27.17;17.85;;;;;;;;;;5030170;28;20030;-59
2023/06/05 06:22:49;;;;;;;22.10;13.90;;;;;;;;;;5030234;28;20048;-61
2023/06/05 06:25:17;;;;;;;28.23;14.25;;;;;;;;;;5029865;28;20053;-62
2023/06/05 06:27:45;;;;;;;20.33;13.60;;;;;;;;;;5030651;28;20034;-61
2023/06/05 06:30:12;;;;;;;22.33;13.82;;;;;;;;;;5030674;28;20470;-62
2023/06/05 06:32:38;;;;;;;23.90;13.80;;;;;;;;;;5030343;28;20037;-59
2023/06/05 06:35:06;;;;;;;24.30;14.48;;;;;;;;;;5029394;28;20621;-62
2023/06/05 06:37:32;;;;;;;32.92;19.73;;;;;;;;;;5030268;28;20552;-62
2023/06/05 06:39:58;;;;;;;21.17;13.73;;;;;;;;;;5030332;28;20030;-61
2023/06/05 06:42:26;;;;;;;25.17;14.07;;;;;;;;;;5030535;28;20028;-62
2023/06/05 06:44:55;;;;;;;22.33;14.10;;;;;;;;;;5029186;28;20091;-60
2023/06/05 06:47:22;;;;;;;22.70;14.27;;;;;;;;;;5044759;22;20052;-57
2023/06/05 06:49:48;;;;;;;22.75;14.68;;;;;;;;;;5015322;28;20026;-64
2023/06/05 06:52:14;;;;;;;22.48;14.38;;;;;;;;;;5017013;28;20026;-64
2023/06/05 06:54:40;;;;;;;21.40;13.30;;;;;;;;;;5026912;28;20022;-63
2023/06/05 06:57:06;;;;;;;21.92;13.23;;;;;;;;;;5016629;28;20155;-60
2023/06/05 06:59:32;;;;;;;21.60;14.15;;;;;;;;;;5016157;28;20355;-59
2023/06/05 07:02:17;;;;;;;20.65;13.73;;;;;;;;;;5016453;28;20018;-63
2023/06/05 07:04:43;;;;;;;24.40;13.55;;;;;;;;;;5015003;28;20029;-62
2023/06/05 07:07:10;;;;;;;22.77;14.15;;;;;;;;;;5015920;28;20033;-60
2023/06/05 07:09:36;;;;;;;22.95;14.30;;;;;;;;;;5014036;28;20022;-63
2023/06/05 07:12:05;;;;;;;22.27;14.10;;;;;;;;;;5014622;28;20037;-62
2023/06/05 07:14:34;;;;;;;21.75;13.38;;;;;;;;;;5015544;28;20260;-62
2023/06/05 07:17:01;;;;;;;25.23;14.98;;;;;;;;;;5014339;28;20038;-61
2023/06/05 07:19:27;;;;;;;24.17;14.48;;;;;;;;;;5015505;28;20383;-64
2023/06/05 07:21:55;;;;;;;23.67;14.10;;;;;;;;;;5015741;28;20052;-63
2023/06/05 07:24:21;;;;;;;22.05;13.40;;;;;;;;;;5030348;28;20022;-58
2023/06/05 07:26:47;;;;;;;23.35;14.00;;;;;;;;;;5016048;28;20033;-62
2023/06/05 07:29:13;;;;;;;22.88;13.75;;;;;;;;;;5016133;28;20033;-61
2023/06/05 07:31:39;;;;;;;24.10;14.10;;;;;;;;;;5016176;28;20033;-63
2023/06/05 07:34:06;;;;;;;20.33;13.60;;;;;;;;;;5016036;28;20033;-62
2023/06/05 07:36:33;;;;;;;26.13;13.82;;;;;;;;;;5015960;28;20038;-64
2023/06/05 07:38:59;;;;;;;21.30;13.50;;;;;;;;;;5016128;28;20103;-58
2023/06/05 07:41:25;;;;;;;20.13;13.10;;;;;;;;;;5011835;28;20080;-54
2023/06/05 07:43:51;;;;;;;19.73;12.80;;;;;;;;;;5026516;28;20523;-61
2023/06/05 07:46:17;;;;;;;21.45;13.13;;;;;;;;;;5011003;28;20034;-58
2023/06/05 07:48:43;;;;;;;20.75;13.80;;;;;;;;;;5011812;28;20121;-58
2023/06/05 07:51:10;;;;;;;22.00;13.95;;;;;;;;;;5012065;28;20156;-61
2023/06/05 07:53:36;;;;;;;20.70;13.07;;;;;;;;;;5011842;28;20029;-56
2023/06/05 07:56:02;;;;;;;21.83;13.18;;;;;;;;;;5010860;28;20022;-59
2023/06/05 07:58:29;;;;;;;20.63;13.95;;;;;;;;;;5011349;28;20454;-60
2023/06/05 08:00:56;;;;;;;21.25;13.90;;;;;;;;;;5011069;28;20014;-57
2023/06/05 08:03:23;;;;;;;21.70;14.50;;;;;;;;;;5011522;28;20033;-58
2023/06/05 08:05:50;;;;;;;21.10;13.00;;;;;;;;;;5010499;28;20097;-56
2023/06/05 08:08:16;;;;;;;18.55;12.32;;;;;;;;;;5011299;28;20447;-59
2023/06/05 08:10:42;;;;;;;26.77;14.63;;;;;;;;;;5011382;28;20124;-56
2023/06/05 08:13:09;;;;;;;20.67;13.70;;;;;;;;;;5011086;28;20018;-54
2023/06/05 08:15:35;;;;;;;22.15;14.32;;;;;;;;;;5010388;28;20045;-57
2023/06/05 08:18:03;;;;;;;21.38;13.15;;;;;;;;;;5011061;28;20104;-59
2023/06/05 08:20:29;;;;;;;23.35;14.35;;;;;;;;;;5026206;28;20132;-55
2023/06/05 08:22:58;;;;;;;21.67;14.30;;;;;;;;;;5011375;28;20030;-59
2023/06/05 08:25:26;;;;;;;21.23;13.10;;;;;;;;;;5010414;28;20030;-57
2023/06/05 08:27:52;;;;;;;21.27;14.30;;;;;;;;;;5011438;28;20401;-60
2023/06/05 08:30:20;;;;;;;21.45;14.05;;;;;;;;;;5011152;28;20544;-59
2023/06/05 08:32:46;;;;;;;19.27;13.02;;;;;;;;;;5011177;28;20037;-61
2023/06/05 08:35:12;;;;;;;23.73;14.50;;;;;;;;;;5025259;28;20408;-61
2023/06/05 08:37:38;;;;;;;21.17;13.25;;;;;;;;;;5010633;28;20037;-57
2023/06/05 08:40:11;;;;;;;18.60;13.38;;;;;;;;;;5010519;28;20483;-59
2023/06/05 08:42:38;;;;;;;22.10;14.25;;;;;;;;;;5009979;28;20034;-61
2023/06/05 08:45:05;;;;;;;25.65;14.45;;;;;;;;;;5009791;28;20410;-58
2023/06/05 08:47:31;;;;;;;23.88;14.35;;;;;;;;;;5010295;28;20033;-58
2023/06/05 08:49:57;;;;;;;23.80;15.43;;;;;;;;;;5025534;28;20134;-61
2023/06/05 08:52:24;;;;;;;26.00;14.80;;;;;;;;;;5010636;28;20038;-61
2023/06/05 08:54:50;;;;;;;21.05;14.05;;;;;;;;;;5016583;28;20022;-62
2023/06/05 08:57:16;;;;;;;21.77;13.82;;;;;;;;;;5013644;28;20022;-61
2023/06/05 08:59:42;;;;;;;19.85;13.68;;;;;;;;;;5010500;28;20064;-56
2023/06/05 09:02:10;;;;;;;20.63;13.65;;;;;;;;;;5008896;28;20109;-59
2023/06/05 09:04:36;;;;;;;21.45;14.95;;;;;;;;;;5008371;28;20064;-61
2023/06/05 09:07:04;;;;;;;21.85;14.52;;;;;;;;;;5010150;28;20026;-57
2023/06/05 09:09:31;;;;;;;21.90;14.70;;;;;;;;;;5009925;28;20451;-60
2023/06/05 09:12:05;;;;;;;21.60;14.35;;;;;;;;;;5009811;28;20101;-61
2023/06/05 09:14:31;;;;;;;24.65;15.25;;;;;;;;;;5007864;28;20122;-61
2023/06/05 09:16:58;;;;;;;20.75;14.30;;;;;;;;;;5010306;28;20074;-59
2023/06/05 09:19:27;;;;;;;23.13;14.85;;;;;;;;;;5010348;28;20032;-58
2023/06/05 09:21:54;;;;;;;19.52;13.48;;;;;;;;;;5009885;28;20022;-58
2023/06/05 09:24:21;;;;;;;22.98;13.90;;;;;;;;;;5009767;28;20128;-59
2023/06/05 09:26:48;;;;;;;20.20;14.95;;;;;;;;;;5010026;28;20147;-61
2023/06/05 09:29:14;;;;;;;24.05;14.98;;;;;;;;;;5010565;28;20388;-58
2023/06/05 09:31:42;;;;;;;20.73;15.70;;;;;;;;;;5010187;28;20601;-60
2023/06/05 09:34:08;;;;;;;20.25;15.55;;;;;;;;;;5024612;28;20458;-59
2023/06/05 09:36:34;;;;;;;22.63;14.95;;;;;;;;;;5025095;28;20068;-62
2023/06/05 09:39:15;;;;;;;23.48;14.95;;;;;;;;;;5023727;28;20117;-64
2023/06/05 09:41:44;;;;;;;22.13;14.68;;;;;;;;;;5009580;28;20171;-64
2023/06/05 09:44:11;;;;;;;23.15;13.98;;;;;;;;;;5009469;28;20119;-62
2023/06/05 09:46:56;;;;;;;25.17;14.25;;;;;;;;;;5010034;28;20030;-64
2023/06/05 09:49:27;;;;;;;25.65;15.68;;;;;;;;;;5025045;28;20057;-64
2023/06/05 09:51:53;;;;;;;21.05;14.70;;;;;;;;;;5009151;28;20037;-65
2023/06/05 09:54:22;;;;;;;23.15;16.15;;;;;;;;;;5024167;28;20026;-62
2023/06/05 09:56:51;;;;;;;21.38;14.48;;;;;;;;;;5009839;28;20450;-67
2023/06/05 09:59:20;;;;;;;21.48;16.63;;;;;;;;;;5010265;28;20082;-64
2023/06/05 10:01:47;;;;;;;20.38;15.15;;;;;;;;;;5009946;28;20018;-65
2023/06/05 10:04:16;;;;;;;23.23;16.40;;;;;;;;;;5009108;28;20026;-64
2023/06/05 10:06:42;;;;;;;;;;;;;;;;;;5010198;28;20355;-67
2023/06/05 10:09:09;;;;;;;21.23;15.10;;;;;;;;;;5010221;28;19912;-65
2023/06/05 10:11:35;;;;;;;24.08;15.50;;;;;;;;;;5010173;28;20033;-64
2023/06/05 10:14:03;;;;;;;19.83;15.10;;;;;;;;;;5009194;28;20026;-64
2023/06/05 10:16:29;;;;;;;20.17;14.50;;;;;;;;;;5009534;28;20478;-64
2023/06/05 10:18:56;;;;;;;20.08;15.38;;;;;;;;;;5009761;28;20447;-62
2023/06/05 10:21:23;;;;;;;19.92;14.20;;;;;;;;;;5009832;28;20041;-64
2023/06/05 10:23:50;;;;;;;20.83;14.93;;;;;;;;;;5010102;28;20092;-66
2023/06/05 10:26:35;;;;;;;20.70;13.82;;;;;;;;;;5028428;28;20030;-61
2023/06/05 10:29:10;;;;;;;22.60;14.63;;;;;;;;;;5013575;28;20565;-64
2023/06/05 10:31:46;;;;;;;20.67;14.27;;;;;;;;;;5013706;28;20030;-64
2023/06/05 10:34:15;;;;;;;25.15;13.50;;;;;;;;;;5028134;28;20030;-63
2023/06/05 10:36:41;;;;;;;19.70;14.02;;;;;;;;;;5017340;28;20022;-66
2023/06/05 10:39:11;;;;;;;24.65;15.70;;;;;;;;;;5021079;28;20067;-64
2023/06/05 10:41:37;;;;;;;21.77;14.70;;;;;;;;;;5029677;28;20048;-65
2023/06/05 10:44:03;;;;;;;20.52;15.00;;;;;;;;;;5013164;28;20030;-64
2023/06/05 10:46:32;;;;;;;21.48;14.20;;;;;;;;;;5012786;28;20038;-63
2023/06/05 10:49:19;;;;;;;18.67;14.65;;;;;;;;;;5013231;28;20097;-64
2023/06/05 10:51:51;;;;;;;20.15;14.40;;;;;;;;;;5012578;28;20097;-69
2023/06/05 10:54:23;;;;;;;20.20;14.55;;;;;;;;;;5010610;28;20038;-64
2023/06/05 10:56:56;;;;;;;20.45;14.02;;;;;;;;;;5012931;28;20018;-65
2023/06/05 10:59:32;;;;;;;20.58;14.85;;;;;;;;;;4661364;28;10000421;-62
2023/06/05 11:02:16;;;;;;;23.38;14.18;;;;;;;;;;5003194;28;20482;-62
2023/06/05 11:04:46;;;;;;;20.92;15.02;;;;;;;;;;4996895;28;20471;-65
2023/06/05 11:07:21;;;;;;;19.63;14.73;;;;;;;;;;4990341;28;20468;-64
2023/06/05 11:10:05;;;;;;;21.48;14.82;;;;;;;;;;5014104;28;20112;-65
2023/06/05 11:12:34;;;;;;;23.75;17.05;;;;;;;;;;5019218;28;20333;-65
2023/06/05 11:15:01;;;;;;;21.13;15.85;;;;;;;;;;5008551;28;20026;-64
2023/06/05 11:17:31;;;;;;;21.63;14.85;;;;;;;;;;5008804;28;20113;-66
2023/06/05 11:19:58;;;;;;;20.45;15.50;;;;;;;;;;5009545;28;20494;-64
2023/06/05 11:22:25;;;;;;;22.75;15.43;;;;;;;;;;5023747;28;20520;-64
2023/06/05 11:25:11;;;;;;;21.42;15.52;;;;;;;;;;5007535;28;20018;-66
2023/06/05 11:27:43;;;;;;;21.80;15.60;;;;;;;;;;5008821;28;20088;-67
2023/06/05 11:30:12;;;;;;;19.33;15.18;;;;;;;;;;5009237;28;20030;-65
2023/06/05 11:32:38;;;;;;;21.65;15.52;;;;;;;;;;5008709;28;20038;-65
2023/06/05 11:35:05;;;;;;;19.50;15.60;;;;;;;;;;5007140;28;20409;-65
2023/06/05 11:37:34;;;;;;;24.17;15.20;;;;;;;;;;5008132;28;20097;-66
2023/06/05 11:40:04;;;;;;;21.58;15.90;;;;;;;;;;5024086;28;20026;-67
2023/06/05 11:42:31;;;;;;;18.80;15.02;;;;;;;;;;5008667;28;20061;-66
2023/06/05 11:44:57;;;;;;;20.05;15.88;;;;;;;;;;5023148;28;20117;-66
2023/06/05 11:47:28;;;;;;;20.85;15.45;;;;;;;;;;5008264;28;20444;-67
2023/06/05 11:49:54;;;;;;;17.60;14.98;;;;;;;;;;5008691;28;20397;-66
2023/06/05 11:52:22;;;;;;;20.42;15.30;;;;;;;;;;5008844;28;20034;-67
2023/06/05 11:55:05;;;;;;;19.80;16.63;;;;;;;;;;5023081;28;20045;-64
2023/06/05 11:57:41;;;;;;;19.42;15.82;;;;;;;;;;5007986;28;20541;-65
2023/06/05 12:00:09;;;;;;;18.58;15.98;;;;;;;;;;5007453;28;20037;-65
2023/06/05 12:02:36;;;;;;;19.08;16.40;;;;;;;;;;5008050;28;20037;-68
2023/06/05 12:05:02;;;;;;;19.52;15.05;;;;;;;;;;5007471;28;20031;-66
2023/06/05 12:07:29;;;;;;;21.27;15.80;;;;;;;;;;5008448;28;20026;-66
2023/06/05 12:09:55;;;;;;;19.33;15.80;;;;;;;;;;5008481;28;20347;-65
2023/06/05 12:12:21;;;;;;;18.45;15.82;;;;;;;;;;5007791;28;20022;-66
2023/06/05 12:14:47;;;;;;;18.88;15.07;;;;;;;;;;5023084;28;20218;-67
2023/06/05 12:17:13;;;;;;;18.52;14.82;;;;;;;;;;5007920;28;20425;-63
2023/06/05 12:19:40;;;;;;;21.83;15.88;;;;;;;;;;5008407;28;20022;-63
2023/06/05 12:22:08;;;;;;;19.20;14.65;;;;;;;;;;5023151;28;20030;-64
2023/06/05 12:24:35;;;;;;;19.30;15.07;;;;;;;;;;5006699;28;20409;-63
2023/06/05 12:27:05;;;;;;;18.23;14.98;;;;;;;;;;5008007;28;20478;-63
2023/06/05 12:29:34;;;;;;;19.02;15.02;;;;;;;;;;5022945;28;20033;-62
2023/06/05 12:32:02;;;;;;;20.02;15.18;;;;;;;;;;5008056;28;20034;-64
2023/06/05 12:34:50;;;;;;;16.98;15.15;;;;;;;;;;5007561;28;20034;-63
2023/06/05 12:37:32;;;;;;;19.33;15.02;;;;;;;;;;5007909;28;20018;-62
2023/06/05 12:40:05;;;;;;;18.48;15.30;;;;;;;;;;5008210;28;20024;-64
2023/06/05 12:42:37;;;;;;;19.05;14.77;;;;;;;;;;5008372;28;20030;-63
2023/06/05 12:45:03;;;;;;;18.05;14.38;;;;;;;;;;5007170;28;20029;-61
2023/06/05 12:47:29;;;;;;;18.13;14.48;;;;;;;;;;5024668;22;20509;-63
2023/06/05 12:49:58;;;;;;;17.58;14.40;;;;;;;;;;5009403;28;20058;-59
2023/06/05 12:52:27;;;;;;;18.42;15.57;;;;;;;;;;5008811;28;20029;-63
2023/06/05 12:54:56;;;;;;;18.75;15.70;;;;;;;;;;5008476;28;20056;-62
2023/06/05 12:57:23;;;;;;;20.15;15.38;;;;;;;;;;5009513;28;20025;-62
2023/06/05 12:59:50;;;;;;;17.52;15.20;;;;;;;;;;5009122;28;20018;-63
2023/06/05 13:02:16;;;;;;;20.10;15.23;;;;;;;;;;5008855;28;20030;-64
2023/06/05 13:04:42;;;;;;;17.55;14.57;;;;;;;;;;5007880;28;20022;-61
2023/06/05 13:07:10;;;;;;;18.92;14.63;;;;;;;;;;5010003;28;20051;-61
2023/06/05 13:09:36;;;;;;;17.38;15.15;;;;;;;;;;5007905;28;20022;-62
2023/06/05 13:12:03;;;;;;;18.48;14.85;;;;;;;;;;5006761;28;20470;-63
2023/06/05 13:14:30;;;;;;;18.73;15.15;;;;;;;;;;5009901;28;20032;-63
2023/06/05 13:16:57;;;;;;;18.38;15.25;;;;;;;;;;5010092;28;20026;-62
2023/06/05 13:19:23;;;;;;;18.43;14.63;;;;;;;;;;4660764;28;9999671;-62
2023/06/05 13:21:49;;;;;;;17.77;15.07;;;;;;;;;;5007300;28;20652;-62
2023/06/05 13:24:15;;;;;;;18.38;15.15;;;;;;;;;;5006838;28;20029;-62
2023/06/05 13:26:42;;;;;;;19.35;15.80;;;;;;;;;;5006726;28;20030;-62
2023/06/05 13:29:09;;;;;;;21.25;15.13;;;;;;;;;;5011315;28;20620;-60
2023/06/05 13:31:35;;;;;;;16.70;14.38;;;;;;;;;;5017980;28;20076;-63
2023/06/05 13:34:01;;;;;;;17.05;14.63;;;;;;;;;;5014358;28;20040;-63
2023/06/05 13:36:27;;;;;;;19.48;15.27;;;;;;;;;;5008675;28;20217;-66
2023/06/05 13:38:53;;;;;;;17.88;14.88;;;;;;;;;;5027183;28;20064;-62
2023/06/05 13:41:19;;;;;;;17.85;14.90;;;;;;;;;;5028734;28;20025;-62
2023/06/05 13:43:46;;;;;;;18.67;14.80;;;;;;;;;;5027701;28;20727;-62
2023/06/05 13:46:12;;;;;;;17.80;14.90;;;;;;;;;;5018238;28;20061;-63
2023/06/05 13:48:38;;;;;;;17.65;14.82;;;;;;;;;;5006844;28;20057;-63
2023/06/05 13:51:04;;;;;;;16.65;14.50;;;;;;;;;;5009275;28;20038;-63
2023/06/05 13:53:34;;;;;;;17.92;14.80;;;;;;;;;;5007928;28;20137;-62
2023/06/05 13:56:09;;;;;;;18.10;15.00;;;;;;;;;;5008783;28;20348;-62
2023/06/05 13:58:35;;;;;;;18.27;14.98;;;;;;;;;;5019482;28;20048;-62
2023/06/05 14:01:02;;;;;;;18.35;14.43;;;;;;;;;;5018004;28;20387;-62
2023/06/05 14:03:28;;;;;;;19.30;15.48;;;;;;;;;;5010845;28;20030;-61
2023/06/05 14:05:54;;;;;;;17.48;14.70;;;;;;;;;;5028920;28;20033;-61
2023/06/05 14:08:21;;;;;;;16.40;14.48;;;;;;;;;;5024132;28;20026;-61
2023/06/05 14:10:47;;;;;;;18.70;14.60;;;;;;;;;;5012083;28;20033;-62
2023/06/05 14:13:13;;;;;;;17.55;15.02;;;;;;;;;;5016169;28;20026;-63
2023/06/05 14:15:39;;;;;;;18.58;14.63;;;;;;;;;;5011501;28;20504;-62
2023/06/05 14:18:06;;;;;;;17.85;15.27;;;;;;;;;;5012732;28;20025;-62
2023/06/05 14:20:32;;;;;;;18.90;15.17;;;;;;;;;;5015983;28;20021;-62